Hovedside
METAR-TAF:

METAR-TAF

Lufthavner :

Akaba, Jordan

breddegrad: 29-38N, lengdegrad: 035-01E, høyde over havet: 53 m

Gjeldene værobservasjon

Denne rapporten ble laget for 50 minutter siden, klokken 19:00 UTC
Vind 6 kt fra Nord-nordøst
Temperatur 22°C
Luftfuktighet 38%
Trykk 1019 hPa
Sikt 10 km eller mer
ingen skyer under 1500 m og ingen bygeskyer

METAR: OJAQ 281900Z 02006KT CAVOK 22/07 Q1019 NOSIG

Tid: 21:50 (19:50 UTC)

Varsel

Denne rapporten ble laget for 2 timer og 50 minutter siden, klokken 17:00 UTC
Varsel gyldig fra 28. klokken 18 UTC til 29. klokken 24 UTC
Vind 10 kt fra Nord
Sikt: 7000 m
Midlertidig
fra 29. klokken 10 UTC til 29. klokken 15 UTC
Vind 16 kt fra Nord

TAF: OJAQ 281700Z 2818/2924 35010KT 7000 NSC TEMPO 2910/2915 36016KT

Værobservasjoner og værvarsel for over 4000 flyplasser (METAR- og TAF-rapporter).

Tilgjengelige stasjoner er representert av de røde og gule prikkene på kartet.

Hold musepekeren over prikken for å se navnet på stasjonen.

Klikk så for å se værobservasjoner og -varsler.

For å forandre kartet kan du klikke på den grønne knappen med svart kryss for å zoome inn, på den grønne knappen med strek for å zoome ut, eller på de grønne pilene for å se tilstøtende kart.


METAR-TAF: